createdAt,value
2019-03-16T00:00:04.792Z,88.28
2019-03-16T00:02:33.296Z,88.61
2019-03-16T00:05:01.761Z,88.23
2019-03-16T00:07:33.174Z,88.68
2019-03-16T00:10:00.369Z,88.55
2019-03-16T00:12:28.767Z,87.89
2019-03-16T00:14:57.206Z,87.92
2019-03-16T00:17:25.624Z,88.00
2019-03-16T00:19:54.073Z,87.76
2019-03-16T00:22:22.587Z,88.10
2019-03-16T00:24:51.027Z,87.37
2019-03-16T00:27:19.522Z,87.50
2019-03-16T00:29:47.984Z,87.46
2019-03-16T00:32:16.395Z,87.47
2019-03-16T00:34:44.924Z,87.10
2019-03-16T00:37:13.335Z,87.95
2019-03-16T00:39:41.789Z,88.59
2019-03-16T00:42:10.239Z,89.35
2019-03-16T00:44:38.727Z,89.49
2019-03-16T00:47:07.218Z,90.18
2019-03-16T00:49:35.636Z,89.57
2019-03-16T00:52:04.170Z,89.05
2019-03-16T00:54:32.629Z,89.26
2019-03-16T00:57:01.029Z,89.86
2019-03-16T00:59:29.555Z,89.96
2019-03-16T01:01:57.964Z,89.36
2019-03-16T01:04:26.387Z,89.24
2019-03-16T01:06:54.908Z,88.80
2019-03-16T01:09:23.402Z,88.61
2019-03-16T01:11:51.900Z,88.28
2019-03-16T01:14:20.339Z,88.51
2019-03-16T01:16:48.755Z,88.90
2019-03-16T01:19:17.265Z,88.73
2019-03-16T01:21:45.757Z,89.26
2019-03-16T01:24:14.210Z,89.60
2019-03-16T01:26:42.657Z,89.63
2019-03-16T01:29:11.071Z,89.05
2019-03-16T01:31:39.531Z,89.03
2019-03-16T01:34:07.938Z,88.20
2019-03-16T01:36:36.372Z,87.64
2019-03-16T01:39:07.255Z,87.74
2019-03-16T01:41:35.708Z,87.61
2019-03-16T01:44:04.403Z,88.02
2019-03-16T01:46:32.891Z,88.05
2019-03-16T01:49:01.324Z,88.58
2019-03-16T01:51:29.722Z,88.54
2019-03-16T01:53:58.169Z,88.36
2019-03-16T01:56:26.577Z,88.74
2019-03-16T01:58:55.012Z,88.83
2019-03-16T02:01:23.427Z,88.45
2019-03-16T02:03:51.914Z,88.59
2019-03-16T02:06:20.444Z,88.52
2019-03-16T02:08:48.901Z,89.06
2019-03-16T02:11:17.538Z,89.06
2019-03-16T02:13:45.983Z,89.11
2019-03-16T02:16:14.726Z,89.70
2019-03-16T02:18:43.147Z,89.48
2019-03-16T02:21:11.579Z,88.47
2019-03-16T02:23:39.992Z,88.09
2019-03-16T02:26:08.725Z,88.18
2019-03-16T02:28:37.215Z,87.46
2019-03-16T02:31:05.781Z,87.36
2019-03-16T02:33:34.227Z,87.74
2019-03-16T02:36:02.788Z,87.38
2019-03-16T02:38:31.302Z,87.58
2019-03-16T02:40:59.754Z,87.25
2019-03-16T02:43:28.249Z,87.46
2019-03-16T02:45:56.660Z,87.59
2019-03-16T02:48:25.109Z,87.83
2019-03-16T02:50:53.633Z,88.18
2019-03-16T02:53:22.341Z,87.82
2019-03-16T02:55:50.845Z,87.53
2019-03-16T02:58:19.232Z,88.09
2019-03-16T03:00:48.071Z,87.80
2019-03-16T03:03:28.399Z,88.02
2019-03-16T03:05:46.627Z,87.18
2019-03-16T03:08:15.173Z,86.60
2019-03-16T03:10:43.624Z,87.18
2019-03-16T03:13:13.968Z,87.29
2019-03-16T03:15:42.252Z,86.35
2019-03-16T03:18:10.682Z,87.09
2019-03-16T03:20:39.100Z,86.75
2019-03-16T03:23:07.609Z,86.78
2019-03-16T03:25:36.022Z,86.31
2019-03-16T03:28:04.511Z,86.95
2019-03-16T03:30:32.916Z,86.75
2019-03-16T03:33:01.343Z,86.57
2019-03-16T03:35:29.854Z,86.16
2019-03-16T03:37:58.292Z,86.62
2019-03-16T03:40:26.831Z,86.57
2019-03-16T03:42:55.264Z,85.83
2019-03-16T03:45:24.043Z,85.98
2019-03-16T03:47:52.421Z,86.68
2019-03-16T03:50:20.828Z,85.96
2019-03-16T03:52:49.270Z,85.59
2019-03-16T03:55:17.830Z,85.76
2019-03-16T03:57:46.341Z,85.58
2019-03-16T04:00:18.783Z,85.37
2019-03-16T04:02:47.303Z,85.34
2019-03-16T04:05:15.756Z,85.52
2019-03-16T04:07:44.236Z,85.91
2019-03-16T04:10:13.448Z,85.76
2019-03-16T04:12:41.845Z,85.35
2019-03-16T04:15:11.809Z,85.84
2019-03-16T04:17:40.288Z,85.69
2019-03-16T04:20:11.347Z,85.65
2019-03-16T04:22:39.756Z,85.09
2019-03-16T04:25:08.334Z,85.38
2019-03-16T04:27:43.327Z,85.31
2019-03-16T04:30:12.816Z,85.77
2019-03-16T04:32:41.226Z,85.95
2019-03-16T04:35:10.137Z,85.78
2019-03-16T04:37:38.636Z,86.10
2019-03-16T04:40:09.203Z,86.38
2019-03-16T04:42:37.640Z,86.20
2019-03-16T04:45:08.323Z,86.12
2019-03-16T04:47:36.781Z,86.32
2019-03-16T04:50:08.242Z,86.21
2019-03-16T04:52:36.675Z,86.44
2019-03-16T04:55:06.375Z,86.05
2019-03-16T04:57:34.806Z,86.25
2019-03-16T05:00:04.510Z,86.14
2019-03-16T05:02:32.954Z,85.50
2019-03-16T05:05:01.358Z,85.78
2019-03-16T05:07:29.797Z,86.30
2019-03-16T05:09:58.208Z,86.16
2019-03-16T05:12:26.653Z,85.85
2019-03-16T05:14:55.063Z,85.56
2019-03-16T05:17:23.506Z,85.41
2019-03-16T05:19:51.928Z,86.07
2019-03-16T05:22:20.371Z,86.02
2019-03-16T05:24:48.810Z,86.11
2019-03-16T05:27:17.288Z,85.98
2019-03-16T05:29:45.712Z,84.87
2019-03-16T05:32:14.146Z,85.15
2019-03-16T05:34:55.579Z,85.24
2019-03-16T05:37:12.733Z,85.70
2019-03-16T05:39:41.150Z,85.42
2019-03-16T05:42:09.596Z,84.71
2019-03-16T05:44:38.040Z,84.73
2019-03-16T05:47:06.444Z,85.50
2019-03-16T05:49:34.908Z,85.94
2019-03-16T05:52:03.321Z,86.91
2019-03-16T05:54:31.752Z,87.59
2019-03-16T05:57:00.345Z,87.72
2019-03-16T05:59:28.748Z,87.98
2019-03-16T06:01:57.178Z,87.41
2019-03-16T06:04:25.633Z,88.06
2019-03-16T06:06:54.069Z,87.60
2019-03-16T06:09:22.484Z,88.19
2019-03-16T06:11:50.906Z,88.22
2019-03-16T06:14:19.360Z,87.54
2019-03-16T06:16:47.770Z,87.66
2019-03-16T06:19:16.190Z,87.50
2019-03-16T06:21:44.634Z,87.62
2019-03-16T06:24:13.398Z,87.51
2019-03-16T06:26:41.820Z,87.22
2019-03-16T06:29:10.233Z,86.68
2019-03-16T06:31:38.688Z,86.85
2019-03-16T06:34:07.107Z,87.25
2019-03-16T06:36:35.518Z,87.03
2019-03-16T06:39:06.084Z,85.50
2019-03-16T06:41:34.504Z,85.70
2019-03-16T06:44:02.921Z,85.77
2019-03-16T06:46:31.361Z,85.75
2019-03-16T06:48:59.792Z,84.76
2019-03-16T06:51:28.247Z,84.06
2019-03-16T06:53:56.690Z,83.66
2019-03-16T06:56:25.099Z,83.86
2019-03-16T06:58:53.573Z,83.92
2019-03-16T07:01:21.995Z,83.63
2019-03-16T07:03:50.403Z,83.54
2019-03-16T07:06:18.863Z,83.62
2019-03-16T07:08:47.332Z,82.89
2019-03-16T07:11:15.751Z,82.95
2019-03-16T07:13:44.196Z,82.74
2019-03-16T07:16:12.634Z,83.05
2019-03-16T07:18:41.130Z,82.90
2019-03-16T07:21:09.557Z,82.26
2019-03-16T07:23:38.027Z,82.24
2019-03-16T07:26:14.656Z,82.16
2019-03-16T07:28:36.675Z,82.28
2019-03-16T07:31:05.239Z,81.83
2019-03-16T07:33:33.649Z,81.48
2019-03-16T07:36:02.162Z,81.79
2019-03-16T07:38:30.595Z,81.38
2019-03-16T07:40:59.008Z,80.91
2019-03-16T07:43:27.474Z,80.92
2019-03-16T07:45:55.919Z,81.30
2019-03-16T07:48:24.723Z,80.20
2019-03-16T07:50:53.324Z,79.98
2019-03-16T07:53:21.823Z,79.35
2019-03-16T07:55:50.271Z,78.96
2019-03-16T07:58:18.688Z,78.70
2019-03-16T08:00:47.207Z,78.95
2019-03-16T08:03:15.631Z,77.57
2019-03-16T08:05:44.084Z,78.34
2019-03-16T08:08:12.510Z,77.35
2019-03-16T08:10:41.031Z,77.02
2019-03-16T08:13:09.463Z,76.34
2019-03-16T08:15:37.910Z,74.80
2019-03-16T08:18:08.057Z,74.57
2019-03-16T08:20:36.504Z,73.84
2019-03-16T08:23:07.528Z,73.04
2019-03-16T08:25:35.264Z,70.12
2019-03-16T08:28:03.761Z,70.24
2019-03-16T08:30:32.258Z,67.52
2019-03-16T08:33:01.215Z,63.93
2019-03-16T08:35:29.654Z,66.22
2019-03-16T08:37:58.072Z,68.31
2019-03-16T08:40:26.604Z,68.05
2019-03-16T08:42:55.123Z,65.51
2019-03-16T08:45:23.544Z,65.88
2019-03-16T08:47:51.987Z,68.52
2019-03-16T08:50:20.409Z,69.75
2019-03-16T08:52:48.865Z,70.53
2019-03-16T08:55:17.379Z,71.29
2019-03-16T08:57:45.909Z,72.13
2019-03-16T09:00:14.984Z,72.74
2019-03-16T09:02:43.506Z,72.12
2019-03-16T09:05:11.986Z,71.48
2019-03-16T09:07:40.517Z,72.48
2019-03-16T09:10:10.191Z,72.02
2019-03-16T09:12:38.755Z,69.48
2019-03-16T09:15:13.163Z,67.56
2019-03-16T09:17:41.695Z,66.53
2019-03-16T09:20:10.305Z,60.74
2019-03-16T09:22:38.868Z,59.10
2019-03-16T09:25:08.937Z,59.76
2019-03-16T09:27:37.437Z,60.55
2019-03-16T09:30:08.924Z,60.65
2019-03-16T09:32:37.380Z,57.06
2019-03-16T09:35:06.458Z,55.52
2019-03-16T09:37:34.957Z,52.87
2019-03-16T09:40:03.907Z,51.11
2019-03-16T09:42:32.354Z,52.54
2019-03-16T09:45:00.781Z,48.99
2019-03-16T09:47:29.283Z,49.32
2019-03-16T09:49:57.740Z,49.95
2019-03-16T09:52:26.203Z,53.31
2019-03-16T09:54:54.632Z,55.32
2019-03-16T09:57:23.077Z,55.60
2019-03-16T09:59:51.554Z,57.84
2019-03-16T10:02:19.983Z,56.59
2019-03-16T10:04:48.404Z,58.33
2019-03-16T10:07:16.996Z,57.50
2019-03-16T10:09:45.493Z,58.59
2019-03-16T10:12:14.006Z,59.28
2019-03-16T10:14:42.457Z,58.97
2019-03-16T10:17:10.913Z,59.01
2019-03-16T10:19:39.378Z,56.75
2019-03-16T10:22:07.894Z,54.21
2019-03-16T10:24:36.645Z,52.55
2019-03-16T10:27:05.126Z,52.23
2019-03-16T10:29:33.534Z,52.40
2019-03-16T10:32:01.985Z,53.97
2019-03-16T10:34:30.408Z,52.53
2019-03-16T10:36:58.870Z,52.65
2019-03-16T10:39:27.294Z,54.23
2019-03-16T10:41:55.713Z,54.42
2019-03-16T10:44:24.184Z,54.81
2019-03-16T10:46:52.610Z,55.21
2019-03-16T10:49:21.144Z,54.10
2019-03-16T10:51:49.562Z,55.01
2019-03-16T10:54:18.023Z,54.22
2019-03-16T10:56:46.450Z,55.20
2019-03-16T10:59:14.923Z,54.04
2019-03-16T11:01:43.344Z,52.85
2019-03-16T11:04:11.806Z,52.63
2019-03-16T11:06:40.238Z,49.99
2019-03-16T11:09:10.135Z,49.86
2019-03-16T11:11:38.547Z,50.97
2019-03-16T11:14:07.030Z,49.93
2019-03-16T11:16:35.443Z,50.04
2019-03-16T11:19:03.989Z,50.74
2019-03-16T11:21:32.451Z,52.59
2019-03-16T11:24:00.961Z,51.77
2019-03-16T11:26:29.502Z,50.70
2019-03-16T11:29:08.570Z,50.76
2019-03-16T11:31:28.117Z,52.52
2019-03-16T11:33:56.640Z,51.81
2019-03-16T11:36:25.116Z,51.47
2019-03-16T11:38:53.706Z,49.71
2019-03-16T11:41:22.170Z,49.45
2019-03-16T11:43:50.593Z,48.71
2019-03-16T11:46:19.091Z,48.33
2019-03-16T11:48:49.189Z,50.70
2019-03-16T11:51:17.611Z,49.94
2019-03-16T11:53:46.077Z,48.91
2019-03-16T11:56:18.283Z,50.75
2019-03-16T11:58:44.732Z,50.06
2019-03-16T12:01:13.332Z,49.00
2019-03-16T12:03:41.763Z,48.93
2019-03-16T12:06:10.186Z,48.85
2019-03-16T12:08:39.753Z,47.72
2019-03-16T12:11:08.397Z,49.17
2019-03-16T12:13:36.821Z,49.40
2019-03-16T12:16:05.313Z,49.76
2019-03-16T12:18:34.106Z,50.20
2019-03-16T12:21:02.536Z,49.61
2019-03-16T12:23:30.970Z,48.67
2019-03-16T12:25:59.440Z,50.68
2019-03-16T12:28:27.870Z,50.40
2019-03-16T12:30:56.296Z,49.68
2019-03-16T12:33:24.803Z,50.68
2019-03-16T12:35:53.244Z,49.21
2019-03-16T12:38:21.701Z,49.35
2019-03-16T12:40:50.149Z,51.53
2019-03-16T12:43:18.624Z,49.62
2019-03-16T12:45:47.165Z,49.63
2019-03-16T12:48:15.590Z,48.53
2019-03-16T12:50:44.560Z,50.13
2019-03-16T12:53:13.118Z,50.09
2019-03-16T12:55:41.552Z,50.22
2019-03-16T12:58:10.348Z,49.89
2019-03-16T13:00:38.790Z,50.97
2019-03-16T13:03:08.729Z,48.73
2019-03-16T13:05:37.277Z,49.27
2019-03-16T13:08:05.778Z,50.62
2019-03-16T13:10:34.383Z,49.84
2019-03-16T13:13:02.887Z,49.68
2019-03-16T13:15:31.306Z,51.13
2019-03-16T13:17:59.779Z,49.76
2019-03-16T13:20:28.288Z,48.65
2019-03-16T13:22:56.883Z,49.96
2019-03-16T13:25:25.310Z,49.10
2019-03-16T13:27:53.739Z,48.88
2019-03-16T13:30:22.450Z,50.11
2019-03-16T13:32:51.123Z,50.72
2019-03-16T13:35:19.677Z,50.07
2019-03-16T13:37:48.310Z,50.95
2019-03-16T13:40:18.443Z,50.04
2019-03-16T13:42:46.961Z,49.48
2019-03-16T13:45:15.548Z,47.74
2019-03-16T13:47:44.042Z,47.43
2019-03-16T13:50:17.714Z,45.58
2019-03-16T13:52:46.325Z,44.68
2019-03-16T13:55:14.892Z,46.86
2019-03-16T13:57:43.343Z,47.19
2019-03-16T14:00:17.188Z,48.16
2019-03-16T14:02:45.617Z,48.43
2019-03-16T14:05:14.209Z,49.55
2019-03-16T14:07:43.098Z,48.63
2019-03-16T14:10:23.044Z,47.29
2019-03-16T14:12:51.504Z,48.52
2019-03-16T14:15:20.255Z,48.14
2019-03-16T14:17:48.692Z,49.33
2019-03-16T14:20:17.568Z,49.12
2019-03-16T14:22:46.101Z,49.30
2019-03-16T14:25:14.532Z,49.18
2019-03-16T14:27:43.062Z,49.33
2019-03-16T14:30:34.753Z,49.36
2019-03-16T14:32:47.127Z,49.15
2019-03-16T14:35:15.711Z,49.39
2019-03-16T14:37:44.150Z,48.40
2019-03-16T14:40:14.788Z,47.95
2019-03-16T14:42:43.386Z,47.57
2019-03-16T14:45:14.316Z,48.57
2019-03-16T14:47:42.796Z,47.64
2019-03-16T14:50:16.825Z,48.12
2019-03-16T14:52:45.463Z,47.49
2019-03-16T14:55:14.059Z,48.39
2019-03-16T14:57:42.655Z,47.91
2019-03-16T15:00:18.780Z,48.14
2019-03-16T15:02:47.315Z,47.14
2019-03-16T15:05:15.864Z,45.49
2019-03-16T15:07:44.275Z,46.58
2019-03-16T15:10:16.841Z,46.05
2019-03-16T15:12:45.714Z,45.02
2019-03-16T15:15:18.821Z,45.05
2019-03-16T15:17:47.314Z,46.36
2019-03-16T15:20:15.782Z,46.94
2019-03-16T15:22:44.377Z,46.33
2019-03-16T15:25:13.794Z,46.27
2019-03-16T15:27:42.349Z,47.28
2019-03-16T15:30:15.980Z,46.46
2019-03-16T15:32:44.413Z,47.50
2019-03-16T15:35:13.028Z,47.01
2019-03-16T15:37:41.458Z,47.80
2019-03-16T15:40:12.470Z,47.91
2019-03-16T15:42:41.027Z,48.27
2019-03-16T15:45:20.377Z,48.34
2019-03-16T15:47:48.959Z,49.40
2019-03-16T15:50:17.486Z,49.29
2019-03-16T15:52:46.009Z,49.01
2019-03-16T15:55:14.699Z,49.21
2019-03-16T15:57:43.260Z,49.58
2019-03-16T16:00:16.456Z,49.87
2019-03-16T16:02:45.092Z,49.60
2019-03-16T16:05:13.905Z,49.53
2019-03-16T16:07:42.481Z,50.00
2019-03-16T16:10:16.607Z,50.50
2019-03-16T16:12:45.295Z,51.22
2019-03-16T16:15:14.495Z,50.82
2019-03-16T16:17:43.037Z,50.97
2019-03-16T16:20:16.218Z,49.17
2019-03-16T16:22:44.791Z,50.17
2019-03-16T16:25:13.990Z,49.80
2019-03-16T16:27:42.570Z,49.60
2019-03-16T16:30:13.577Z,50.38
2019-03-16T16:32:42.020Z,50.91
2019-03-16T16:35:12.015Z,51.70
2019-03-16T16:37:40.536Z,52.20
2019-03-16T16:40:20.100Z,52.93
2019-03-16T16:42:48.681Z,51.63
2019-03-16T16:45:17.818Z,52.15
2019-03-16T16:47:46.416Z,51.70
2019-03-16T16:50:22.383Z,51.10
2019-03-16T16:52:50.873Z,51.38
2019-03-16T16:55:19.475Z,50.82
2019-03-16T16:57:48.061Z,51.38
2019-03-16T17:00:24.885Z,51.55
2019-03-16T17:02:53.382Z,51.47
2019-03-16T17:05:22.073Z,51.11
2019-03-16T17:07:50.557Z,51.05
2019-03-16T17:10:19.058Z,50.80
2019-03-16T17:12:47.654Z,47.19
2019-03-16T17:15:20.469Z,48.22
2019-03-16T17:17:49.066Z,49.24
2019-03-16T17:20:17.659Z,49.71
2019-03-16T17:22:46.231Z,49.57
2019-03-16T17:25:15.799Z,50.69
2019-03-16T17:27:44.232Z,50.64
2019-03-16T17:30:21.423Z,50.93
2019-03-16T17:32:49.879Z,50.99
2019-03-16T17:35:18.297Z,50.87
2019-03-16T17:37:46.865Z,51.24
2019-03-16T17:40:16.046Z,52.01
2019-03-16T17:42:44.540Z,51.88
2019-03-16T17:45:14.248Z,52.72
2019-03-16T17:47:42.820Z,52.51
2019-03-16T17:50:13.461Z,52.82
2019-03-16T17:52:41.989Z,53.56
2019-03-16T17:55:15.339Z,53.63
2019-03-16T17:57:45.460Z,53.65
2019-03-16T18:00:15.816Z,54.26
2019-03-16T18:02:51.446Z,54.50
2019-03-16T18:05:14.699Z,54.86
2019-03-16T18:07:43.512Z,54.56
2019-03-16T18:10:15.732Z,54.42
2019-03-16T18:12:44.342Z,54.59
2019-03-16T18:15:14.957Z,54.35
2019-03-16T18:17:43.571Z,54.31
2019-03-16T18:20:17.141Z,54.39
2019-03-16T18:22:44.518Z,54.50
2019-03-16T18:25:14.585Z,54.13
2019-03-16T18:27:43.080Z,54.11
2019-03-16T18:30:14.379Z,54.73
2019-03-16T18:32:43.013Z,54.56
2019-03-16T18:35:11.597Z,54.51
2019-03-16T18:37:40.116Z,54.01
2019-03-16T18:40:13.062Z,54.45
2019-03-16T18:42:41.632Z,54.21
2019-03-16T18:45:30.152Z,53.99
2019-03-16T18:47:58.652Z,54.28
2019-03-16T18:50:27.163Z,54.40
2019-03-16T18:52:55.790Z,54.14
2019-03-16T18:55:24.187Z,53.96
2019-03-16T18:57:52.703Z,54.52
2019-03-16T19:00:21.317Z,54.21
2019-03-16T19:02:49.768Z,55.37
2019-03-16T19:05:18.190Z,55.52
2019-03-16T19:07:46.708Z,55.25
2019-03-16T19:10:16.066Z,55.19
2019-03-16T19:12:45.073Z,55.04
2019-03-16T19:15:18.789Z,55.06
2019-03-16T19:17:58.127Z,55.10
2019-03-16T19:20:18.271Z,55.12
2019-03-16T19:22:46.838Z,55.49
2019-03-16T19:25:20.075Z,55.67
2019-03-16T19:27:48.497Z,55.44
2019-03-16T19:30:17.821Z,55.38
2019-03-16T19:32:46.305Z,56.02
2019-03-16T19:35:15.006Z,55.13
2019-03-16T19:37:43.506Z,55.15
2019-03-16T19:40:13.778Z,54.82
2019-03-16T19:42:42.271Z,54.72
2019-03-16T19:45:11.835Z,54.38
2019-03-16T19:47:40.406Z,53.67
2019-03-16T19:50:14.433Z,53.27
2019-03-16T19:52:42.991Z,52.87
2019-03-16T19:55:12.753Z,52.19
2019-03-16T19:57:41.348Z,51.82
2019-03-16T20:00:17.742Z,51.84
2019-03-16T20:02:51.098Z,50.54
2019-03-16T20:05:16.779Z,50.83
2019-03-16T20:07:45.219Z,50.31
2019-03-16T20:10:16.028Z,50.17
2019-03-16T20:12:44.525Z,50.41
2019-03-16T20:15:14.487Z,50.99
2019-03-16T20:17:43.002Z,51.50
2019-03-16T20:20:17.673Z,50.91
2019-03-16T20:22:46.200Z,51.19
2019-03-16T20:25:14.779Z,50.20
2019-03-16T20:27:43.376Z,49.69
2019-03-16T20:30:14.028Z,50.60
2019-03-16T20:32:42.497Z,49.98
2019-03-16T20:35:11.055Z,50.52
2019-03-16T20:37:39.594Z,50.49
2019-03-16T20:40:13.340Z,51.18
2019-03-16T20:42:41.951Z,51.31
2019-03-16T20:45:14.006Z,50.77
2019-03-16T20:47:42.663Z,50.63
2019-03-16T20:50:17.486Z,49.85
2019-03-16T20:52:45.939Z,49.44
2019-03-16T20:55:14.550Z,48.62
2019-03-16T20:57:43.166Z,48.82
2019-03-16T21:00:18.547Z,48.48
2019-03-16T21:02:47.297Z,48.56
2019-03-16T21:05:15.837Z,47.70
2019-03-16T21:07:44.340Z,47.90
2019-03-16T21:10:13.620Z,47.31
2019-03-16T21:12:42.381Z,46.95
2019-03-16T21:15:18.500Z,46.05
2019-03-16T21:17:47.158Z,46.01
2019-03-16T21:20:19.700Z,45.79
2019-03-16T21:22:48.216Z,45.68
2019-03-16T21:25:17.404Z,44.79
2019-03-16T21:27:45.944Z,45.21
2019-03-16T21:30:20.341Z,45.61
2019-03-16T21:32:48.832Z,45.26
2019-03-16T21:35:17.368Z,44.84
2019-03-16T21:37:45.878Z,44.16
2019-03-16T21:40:17.719Z,44.56
2019-03-16T21:42:46.210Z,44.71
2019-03-16T21:45:15.983Z,44.31
2019-03-16T21:47:44.410Z,43.87
2019-03-16T21:50:16.537Z,43.44
2019-03-16T21:52:45.277Z,43.60
2019-03-16T21:55:14.683Z,43.23
2019-03-16T21:57:43.265Z,42.85
2019-03-16T22:00:17.820Z,41.76
2019-03-16T22:02:46.386Z,41.77
2019-03-16T22:05:14.979Z,40.34
2019-03-16T22:07:43.501Z,40.36
2019-03-16T22:10:16.369Z,39.53
2019-03-16T22:12:45.008Z,39.41
2019-03-16T22:15:14.543Z,39.38
2019-03-16T22:17:43.031Z,39.09
2019-03-16T22:20:18.414Z,39.09
2019-03-16T22:22:46.988Z,39.15
2019-03-16T22:25:15.618Z,37.81
2019-03-16T22:27:44.117Z,35.94
2019-03-16T22:30:14.267Z,35.83
2019-03-16T22:32:42.821Z,35.37
2019-03-16T22:35:11.419Z,34.92
2019-03-16T22:37:39.944Z,35.23
2019-03-16T22:40:10.813Z,34.24
2019-03-16T22:42:39.369Z,33.35
2019-03-16T22:45:10.213Z,33.76
2019-03-16T22:47:38.674Z,34.81
2019-03-16T22:50:18.388Z,34.92
2019-03-16T22:52:46.903Z,34.82
2019-03-16T22:55:16.435Z,34.39
2019-03-16T22:57:45.392Z,34.69
2019-03-16T23:00:25.991Z,33.78
2019-03-16T23:02:54.589Z,34.77
2019-03-16T23:05:23.146Z,34.36
2019-03-16T23:07:51.680Z,34.33
2019-03-16T23:10:20.093Z,33.61
2019-03-16T23:12:48.589Z,33.09
2019-03-16T23:15:17.060Z,33.75
2019-03-16T23:17:45.581Z,32.87
2019-03-16T23:20:14.195Z,32.59
2019-03-16T23:22:42.744Z,32.65
2019-03-16T23:25:11.461Z,32.46
2019-03-16T23:27:39.942Z,31.67
2019-03-16T23:30:12.427Z,32.94
2019-03-16T23:32:40.910Z,32.59
2019-03-16T23:35:09.820Z,33.08
2019-03-16T23:37:38.317Z,32.72
2019-03-16T23:40:13.753Z,32.63
2019-03-16T23:42:42.352Z,33.28
2019-03-16T23:45:12.709Z,33.68
2019-03-16T23:47:41.190Z,33.84
2019-03-16T23:50:13.807Z,32.56
2019-03-16T23:52:42.218Z,31.45
2019-03-16T23:55:10.848Z,31.09
2019-03-16T23:57:39.333Z,31.09
